Time;durP1;ratioP1;P1;durP2;ratioP2;P2;SDS_P1;SDS_P2;PMS_P1;PMS_P2;Temp;Humidity;BMP_temperature;BMP_pressure;BME280_temperature;BME280_humidity;BME280_pressure;Samples;Min_cycle;Max_cycle;Signal;HPM_P1;HPM_P2
2021/11/11 00:00:38;;;;;;;42.53;23.67;;;6.20;99.90;;;;;;5060803;28;20207;-63
2021/11/11 00:03:07;;;;;;;47.30;24.40;;;6.20;99.90;;;;;;5065406;28;20299;-63
2021/11/11 00:05:36;;;;;;;44.90;24.40;;;6.30;99.90;;;;;;5055005;28;20899;-63
2021/11/11 00:08:04;;;;;;;50.73;23.50;;;6.30;99.90;;;;;;5067587;28;20200;-63
2021/11/11 00:10:33;;;;;;;50.57;25.17;;;6.20;99.90;;;;;;5080884;28;20224;-62
2021/11/11 00:13:02;;;;;;;47.43;23.90;;;6.10;99.90;;;;;;5066014;28;20231;-63
2021/11/11 00:15:31;;;;;;;49.57;24.00;;;6.00;99.90;;;;;;5070452;28;20310;-63
2021/11/11 00:18:01;;;;;;;49.67;24.53;;;6.10;99.90;;;;;;5074681;28;20193;-63
2021/11/11 00:20:30;;;;;;;51.50;24.63;;;6.10;99.90;;;;;;5068395;28;20620;-62
2021/11/11 00:22:59;;;;;;;48.30;25.33;;;6.00;99.90;;;;;;5064564;28;20287;-63
2021/11/11 00:25:30;;;;;;;48.60;24.23;;;6.00;99.90;;;;;;5064822;28;20223;-62
2021/11/11 00:27:59;;;;;;;46.87;24.90;;;6.00;99.90;;;;;;5063682;28;20601;-63
2021/11/11 00:30:28;;;;;;;46.30;23.90;;;6.00;99.90;;;;;;5046266;28;20196;-62
2021/11/11 00:32:56;;;;;;;49.93;24.40;;;6.00;99.90;;;;;;5064025;28;20803;-62
2021/11/11 00:35:28;;;;;;;45.07;23.63;;;6.00;99.90;;;;;;5065120;28;20231;-63
2021/11/11 00:37:58;;;;;;;47.80;24.37;;;5.90;99.90;;;;;;5067900;28;20262;-63
2021/11/11 00:40:29;;;;;;;43.37;23.60;;;5.90;99.90;;;;;;5051194;28;20677;-62
2021/11/11 00:42:57;;;;;;;45.60;23.87;;;6.00;99.90;;;;;;5066592;28;20655;-63
2021/11/11 00:45:26;;;;;;;46.63;23.53;;;6.00;99.90;;;;;;5066047;28;20960;-62
2021/11/11 00:47:55;;;;;;;46.93;23.27;;;6.00;99.90;;;;;;5067257;28;20249;-63
2021/11/11 00:50:28;;;;;;;47.23;23.70;;;5.90;99.90;;;;;;5068946;28;20224;-63
2021/11/11 00:52:56;;;;;;;50.43;23.83;;;5.90;99.90;;;;;;5067927;28;20228;-62
2021/11/11 00:55:24;;;;;;;43.03;23.40;;;6.00;99.90;;;;;;5065261;28;20257;-62
2021/11/11 00:57:53;;;;;;;37.53;21.17;;;6.00;99.90;;;;;;5064411;28;20681;-63
2021/11/11 01:00:23;;;;;;;44.77;22.53;;;6.10;99.90;;;;;;5062109;28;20200;-62
2021/11/11 01:03:14;;;;;;;40.17;22.23;;;6.20;99.90;;;;;;5061616;28;20266;-62
2021/11/11 01:05:45;;;;;;;42.30;22.60;;;6.20;99.90;;;;;;5040972;28;20199;-62
2021/11/11 01:08:13;;;;;;;46.00;23.57;;;6.10;99.90;;;;;;5063747;28;20846;-63
2021/11/11 01:10:41;;;;;;;49.70;23.97;;;6.10;99.90;;;;;;5066486;28;20951;-62
2021/11/11 01:13:10;;;;;;;44.33;23.13;;;6.10;99.90;;;;;;5063897;28;20227;-63
2021/11/11 01:15:38;;;;;;;45.40;23.03;;;6.00;99.90;;;;;;5065394;28;20227;-63
2021/11/11 01:18:07;;;;;;;49.73;24.37;;;6.10;99.90;;;;;;5063585;28;20574;-63
2021/11/11 01:20:36;;;;;;;45.40;25.20;;;6.10;99.90;;;;;;5064574;28;20220;-63
2021/11/11 01:23:06;;;;;;;48.47;23.90;;;6.10;99.90;;;;;;5077120;28;20204;-63
2021/11/11 01:25:38;;;;;;;44.67;24.17;;;6.20;99.90;;;;;;5048705;28;20207;-63
2021/11/11 01:28:08;;;;;;;47.93;23.90;;;6.20;99.90;;;;;;5059079;28;20659;-63
2021/11/11 01:30:39;;;;;;;48.23;23.27;;;6.20;99.90;;;;;;5062619;28;20283;-63
2021/11/11 01:33:08;;;;;;;48.93;24.30;;;6.30;99.90;;;;;;5060029;28;20204;-63
2021/11/11 01:35:37;;;;;;;47.93;24.20;;;6.30;99.90;;;;;;5062275;28;20695;-62
2021/11/11 01:38:07;;;;;;;46.37;23.37;;;6.40;99.90;;;;;;5069961;28;20223;-63
2021/11/11 01:40:36;;;;;;;51.33;23.87;;;6.40;99.90;;;;;;5063660;28;20227;-63
2021/11/11 01:43:07;;;;;;;46.90;25.03;;;6.30;99.90;;;;;;5062754;28;20208;-63
2021/11/11 01:45:38;;;;;;;51.20;23.97;;;6.30;99.90;;;;;;5063666;28;20200;-63
2021/11/11 01:48:09;;;;;;;42.30;23.30;;;6.30;99.90;;;;;;5058930;28;20714;-63
2021/11/11 01:50:38;;;;;;;43.20;24.10;;;6.30;99.90;;;;;;5046929;28;20219;-63
2021/11/11 01:53:11;;;;;;;47.07;24.23;;;6.30;99.90;;;;;;5065366;28;20208;-63
2021/11/11 01:55:41;;;;;;;45.43;24.27;;;6.40;99.90;;;;;;5061451;28;20208;-63
2021/11/11 01:58:14;;;;;;;45.83;25.53;;;6.40;99.90;;;;;;5044640;28;20196;-63
2021/11/11 02:00:46;;;;;;;51.20;25.33;;;6.40;99.90;;;;;;5059939;28;20196;-63
2021/11/11 02:03:15;;;;;;;54.03;26.00;;;6.40;99.90;;;;;;5060315;28;20207;-62
2021/11/11 02:05:45;;;;;;;48.87;25.60;;;6.30;99.90;;;;;;5079622;28;20191;-62
2021/11/11 02:08:17;;;;;;;51.70;25.40;;;6.20;99.90;;;;;;5045224;28;20214;-62
2021/11/11 02:10:46;;;;;;;48.47;25.00;;;6.20;99.90;;;;;;5067340;28;20279;-63
2021/11/11 02:13:15;;;;;;;47.87;24.83;;;6.20;99.90;;;;;;5044733;28;20188;-63
2021/11/11 02:15:44;;;;;;;52.73;25.90;;;6.20;99.90;;;;;;5065919;28;20256;-62
2021/11/11 02:18:13;;;;;;;45.50;23.97;;;6.30;99.90;;;;;;5068039;28;20208;-62
2021/11/11 02:20:45;;;;;;;47.87;25.20;;;6.40;99.90;;;;;;5070596;28;20234;-62
2021/11/11 02:23:17;;;;;;;49.93;24.90;;;6.40;99.90;;;;;;5064956;28;20281;-63
2021/11/11 02:25:45;;;;;;;47.37;25.30;;;6.50;99.90;;;;;;5066048;28;20690;-63
2021/11/11 02:28:18;;;;;;;52.93;26.73;;;6.40;99.90;;;;;;5029391;28;20237;-63
2021/11/11 02:30:48;;;;;;;53.03;25.50;;;6.50;99.90;;;;;;5063250;28;20293;-63
2021/11/11 02:33:20;;;;;;;56.60;26.73;;;6.50;99.90;;;;;;5064107;28;20649;-63
2021/11/11 02:35:50;;;;;;;44.93;24.57;;;6.50;99.90;;;;;;5065725;28;20199;-63
2021/11/11 02:38:20;;;;;;;49.30;26.20;;;6.60;99.90;;;;;;5064886;28;20250;-63
2021/11/11 02:40:50;;;;;;;45.70;25.03;;;6.60;99.90;;;;;;5067786;28;20214;-63
2021/11/11 02:43:18;;;;;;;55.43;25.87;;;6.60;99.90;;;;;;5065649;28;22278;-63
2021/11/11 02:45:51;;;;;;;45.60;25.60;;;6.70;99.90;;;;;;5063332;28;20204;-63
2021/11/11 02:48:22;;;;;;;47.67;25.37;;;6.70;99.90;;;;;;5063971;28;20239;-63
2021/11/11 02:50:54;;;;;;;44.73;24.33;;;6.70;99.90;;;;;;5062904;28;20236;-63
2021/11/11 02:53:23;;;;;;;51.00;24.80;;;6.70;99.90;;;;;;5043537;28;20294;-63
2021/11/11 02:55:52;;;;;;;51.07;24.83;;;6.80;99.90;;;;;;5062634;28;20570;-63
2021/11/11 02:58:22;;;;;;;52.03;23.87;;;6.80;99.90;;;;;;5066372;28;20668;-63
2021/11/11 03:00:55;;;;;;;44.63;24.23;;;6.80;99.90;;;;;;5043295;28;21069;-62
2021/11/11 03:03:24;;;;;;;51.50;25.30;;;6.90;99.90;;;;;;5064427;28;20192;-63
2021/11/11 03:05:54;;;;;;;43.70;23.43;;;6.90;99.90;;;;;;5064709;28;20219;-63
2021/11/11 03:08:23;;;;;;;46.27;24.93;;;6.80;99.90;;;;;;5048072;28;20196;-63
2021/11/11 03:10:51;;;;;;;45.00;23.83;;;6.90;99.90;;;;;;5047890;28;20304;-62
2021/11/11 03:13:21;;;;;;;47.27;24.47;;;6.70;99.90;;;;;;5064972;28;20197;-62
2021/11/11 03:15:50;;;;;;;47.43;24.60;;;6.70;99.90;;;;;;5063164;28;20836;-62
2021/11/11 03:18:21;;;;;;;47.73;25.80;;;6.70;99.90;;;;;;5062803;28;20212;-63
2021/11/11 03:20:50;;;;;;;50.93;25.23;;;6.60;99.90;;;;;;5076265;28;20585;-63
2021/11/11 03:23:19;;;;;;;51.60;25.60;;;6.50;99.90;;;;;;5067506;28;20188;-63
2021/11/11 03:25:50;;;;;;;52.10;25.67;;;6.50;99.90;;;;;;5045831;28;20833;-63
2021/11/11 03:28:18;;;;;;;50.87;25.30;;;6.50;99.90;;;;;;5060283;28;20230;-63
2021/11/11 03:30:47;;;;;;;50.67;26.13;;;6.50;99.90;;;;;;5066651;28;20204;-63
2021/11/11 03:33:16;;;;;;;51.50;25.10;;;6.40;99.90;;;;;;5065284;28;20659;-62
2021/11/11 03:35:45;;;;;;;51.93;25.13;;;6.40;99.90;;;;;;5067294;28;20709;-63
2021/11/11 03:38:14;;;;;;;55.03;26.13;;;6.40;99.90;;;;;;5067543;28;20876;-62
2021/11/11 03:40:46;;;;;;;46.97;24.63;;;6.50;99.90;;;;;;5050484;28;20200;-62
2021/11/11 03:43:15;;;;;;;47.67;26.03;;;6.50;99.90;;;;;;5062905;28;20243;-63
2021/11/11 03:45:44;;;;;;;54.00;24.70;;;6.40;99.90;;;;;;5069831;28;20558;-63
2021/11/11 03:48:12;;;;;;;46.63;25.03;;;6.40;99.90;;;;;;5062733;28;20760;-63
2021/11/11 03:50:41;;;;;;;54.03;25.70;;;6.40;99.90;;;;;;5065316;28;20261;-62
2021/11/11 03:53:10;;;;;;;50.47;25.03;;;6.40;99.90;;;;;;5088125;28;20679;-63
2021/11/11 03:55:38;;;;;;;44.07;24.30;;;6.40;99.90;;;;;;5065225;28;20756;-62
2021/11/11 03:58:14;;;;;;;47.90;25.07;;;6.40;99.90;;;;;;5062745;28;20850;-62
2021/11/11 04:00:43;;;;;;;49.47;24.97;;;6.40;99.90;;;;;;5086241;28;20196;-63
2021/11/11 04:03:15;;;;;;;49.03;26.17;;;6.40;99.90;;;;;;5071023;28;20188;-62
2021/11/11 04:05:44;;;;;;;49.47;25.93;;;6.50;99.90;;;;;;5066419;28;20908;-63
2021/11/11 04:08:12;;;;;;;48.27;24.93;;;6.40;99.90;;;;;;5033077;28;20253;-63
2021/11/11 04:10:40;;;;;;;47.27;25.60;;;6.30;99.90;;;;;;5068173;28;20647;-62
2021/11/11 04:13:10;;;;;;;46.63;24.70;;;6.40;99.90;;;;;;5060181;28;20314;-63
2021/11/11 04:15:39;;;;;;;48.00;25.53;;;6.30;99.90;;;;;;5064628;28;20259;-63
2021/11/11 04:18:08;;;;;;;44.90;24.40;;;6.30;99.90;;;;;;5047669;28;20212;-63
2021/11/11 04:20:37;;;;;;;47.43;24.30;;;6.40;99.90;;;;;;5053516;28;20250;-63
2021/11/11 04:23:06;;;;;;;51.83;25.57;;;6.40;99.90;;;;;;5065252;28;20199;-63
2021/11/11 04:25:40;;;;;;;48.53;25.83;;;6.40;99.90;;;;;;5066788;28;20200;-63
2021/11/11 04:28:15;;;;;;;46.93;24.50;;;6.40;99.90;;;;;;5068791;28;20192;-63
2021/11/11 04:30:45;;;;;;;51.77;24.77;;;6.40;99.90;;;;;;5041918;28;20203;-63
2021/11/11 04:33:15;;;;;;;51.47;25.13;;;6.40;99.90;;;;;;5061324;28;20252;-63
2021/11/11 04:35:48;;;;;;;52.07;25.67;;;6.40;99.90;;;;;;5045882;28;20200;-62
2021/11/11 04:38:25;;;;;;;52.40;24.73;;;6.50;99.90;;;;;;5047172;28;20278;-63
2021/11/11 04:41:22;;;;;;;47.13;24.10;;;6.50;99.90;;;;;;5065160;28;20215;-63
2021/11/11 04:44:02;;;;;;;46.07;23.50;;;6.50;99.90;;;;;;5063332;28;20219;-63
2021/11/11 04:49:58;;;;;;;52.70;25.23;;;6.50;99.90;;;;;;5002352;28;20631;-63
2021/11/11 04:52:41;;;;;;;46.63;23.37;;;6.40;99.90;;;;;;5004921;28;20274;-63
2021/11/11 05:01:20;;;;;;;54.67;24.50;;;6.40;99.90;;;;;;5040837;28;20216;-63
2021/11/11 05:03:49;;;;;;;45.87;23.80;;;6.50;99.90;;;;;;5067619;28;20228;-63
2021/11/11 05:06:18;;;;;;;47.40;25.00;;;6.50;99.90;;;;;;5064260;28;20261;-63
2021/11/11 05:08:47;;;;;;;51.70;25.77;;;6.50;99.90;;;;;;5062862;28;20230;-62
2021/11/11 05:11:17;;;;;;;42.00;23.53;;;6.60;99.90;;;;;;5066944;28;20206;-62
2021/11/11 05:13:46;;;;;;;41.27;23.13;;;6.60;99.90;;;;;;5061780;28;20232;-63
2021/11/11 05:16:15;;;;;;;43.60;24.00;;;6.50;99.90;;;;;;5062283;28;20297;-63
2021/11/11 05:18:44;;;;;;;47.57;23.97;;;6.40;99.90;;;;;;5061997;28;20216;-63
2021/11/11 05:21:12;;;;;;;48.47;24.37;;;6.50;99.90;;;;;;5065672;28;20232;-63
2021/11/11 05:23:41;;;;;;;42.73;23.83;;;6.50;99.90;;;;;;5065357;28;20270;-62
2021/11/11 05:26:10;;;;;;;47.90;25.00;;;6.60;99.90;;;;;;5062908;28;20215;-63
2021/11/11 05:28:42;;;;;;;44.13;23.90;;;6.50;99.90;;;;;;5062340;28;20199;-62
2021/11/11 05:31:10;;;;;;;47.03;24.63;;;6.50;99.90;;;;;;5063179;28;20192;-62
2021/11/11 05:33:40;;;;;;;44.33;24.63;;;6.50;99.90;;;;;;5077600;28;20285;-63
2021/11/11 05:36:09;;;;;;;49.30;24.23;;;6.40;99.90;;;;;;5063111;28;20202;-63
2021/11/11 05:38:38;;;;;;;44.20;23.43;;;6.40;99.90;;;;;;5060838;28;20790;-63
2021/11/11 05:41:07;;;;;;;41.67;23.67;;;6.40;99.90;;;;;;5063467;28;20231;-62
2021/11/11 05:43:35;;;;;;;47.90;24.27;;;6.40;99.90;;;;;;5064766;28;20580;-63
2021/11/11 05:46:04;;;;;;;51.63;23.47;;;6.40;99.90;;;;;;5071005;28;20208;-63
2021/11/11 05:48:33;;;;;;;45.13;24.03;;;6.40;99.90;;;;;;5069833;28;20230;-63
2021/11/11 05:51:03;;;;;;;47.57;24.73;;;6.40;99.90;;;;;;5065436;28;20204;-63
2021/11/11 05:53:31;;;;;;;47.93;24.13;;;6.30;99.90;;;;;;5069929;28;20291;-63
2021/11/11 05:56:00;;;;;;;46.20;23.93;;;6.30;99.90;;;;;;5062003;28;20255;-63
2021/11/11 05:58:28;;;;;;;47.57;25.37;;;6.30;99.90;;;;;;5069905;28;20307;-63
2021/11/11 06:00:57;;;;;;;38.57;23.00;;;6.20;99.90;;;;;;5064936;28;20200;-63
2021/11/11 06:03:26;;;;;;;44.30;24.27;;;6.30;99.90;;;;;;5068649;28;20200;-64
2021/11/11 06:05:54;;;;;;;45.77;24.60;;;6.30;99.90;;;;;;5052776;28;20700;-62
2021/11/11 06:08:24;;;;;;;46.67;23.60;;;6.30;99.90;;;;;;5047184;28;20683;-63
2021/11/11 06:10:52;;;;;;;47.50;24.30;;;6.30;99.90;;;;;;5065264;28;20196;-63
2021/11/11 06:13:21;;;;;;;48.57;23.60;;;6.30;99.90;;;;;;5072427;28;20208;-63
2021/11/11 06:15:51;;;;;;;45.67;23.17;;;6.30;99.90;;;;;;5065155;28;20319;-63
2021/11/11 06:18:21;;;;;;;39.70;23.43;;;6.30;99.90;;;;;;5068140;28;20211;-63
2021/11/11 06:20:57;;;;;;;46.63;24.77;;;6.30;99.90;;;;;;5069632;28;20276;-63
2021/11/11 06:23:27;;;;;;;45.30;24.20;;;6.30;99.90;;;;;;5071887;28;20195;-63
2021/11/11 06:25:56;;;;;;;46.67;25.07;;;6.30;99.90;;;;;;5065830;28;20196;-63
2021/11/11 06:28:25;;;;;;;47.50;23.90;;;6.30;99.90;;;;;;5082678;28;20195;-63
2021/11/11 06:30:53;;;;;;;42.97;23.37;;;6.40;99.90;;;;;;5069082;28;20204;-63
2021/11/11 06:33:22;;;;;;;44.37;23.93;;;6.40;99.90;;;;;;5050771;28;20203;-63
2021/11/11 06:35:51;;;;;;;42.83;24.53;;;6.40;99.90;;;;;;5040511;28;20199;-63
2021/11/11 06:38:20;;;;;;;47.37;24.93;;;6.40;99.90;;;;;;5072610;28;20287;-63
2021/11/11 06:40:52;;;;;;;45.50;23.80;;;6.30;99.90;;;;;;5052383;28;20204;-63
2021/11/11 06:43:20;;;;;;;47.47;25.07;;;6.30;99.90;;;;;;5067524;28;20215;-63
2021/11/11 06:45:49;;;;;;;49.00;25.80;;;6.30;99.90;;;;;;5046649;28;20242;-63
2021/11/11 06:48:18;;;;;;;50.40;26.20;;;6.30;99.90;;;;;;5065145;28;20207;-63
2021/11/11 06:50:47;;;;;;;47.30;24.50;;;6.20;99.90;;;;;;5052187;28;20216;-63
2021/11/11 06:53:18;;;;;;;46.73;24.80;;;6.20;99.90;;;;;;5074324;28;21160;-63
2021/11/11 06:55:49;;;;;;;47.70;25.43;;;6.20;99.90;;;;;;5065058;28;20223;-63
2021/11/11 06:58:21;;;;;;;50.27;26.53;;;6.20;99.90;;;;;;5069576;28;20195;-63
2021/11/11 07:00:52;;;;;;;43.47;24.97;;;6.20;99.90;;;;;;5066040;28;20203;-63
2021/11/11 07:03:21;;;;;;;46.97;25.30;;;6.20;99.90;;;;;;5067325;28;20204;-63
2021/11/11 07:05:49;;;;;;;47.37;25.40;;;6.20;99.90;;;;;;5068758;28;20223;-63
2021/11/11 07:08:18;;;;;;;56.20;27.70;;;6.20;99.90;;;;;;5066185;28;20203;-62
2021/11/11 07:10:50;;;;;;;52.07;26.67;;;6.20;99.90;;;;;;5069041;28;20222;-61
2021/11/11 07:13:20;;;;;;;49.43;25.60;;;6.20;99.90;;;;;;5048689;28;20292;-63
2021/11/11 07:15:49;;;;;;;53.07;26.57;;;6.10;99.90;;;;;;5067352;28;20255;-63
2021/11/11 07:18:18;;;;;;;52.07;26.63;;;6.10;99.90;;;;;;5068024;28;20232;-62
2021/11/11 07:20:49;;;;;;;57.80;27.10;;;6.10;99.90;;;;;;5067598;28;20298;-62
2021/11/11 07:23:22;;;;;;;51.43;26.20;;;6.20;99.90;;;;;;5070799;28;20695;-63
2021/11/11 07:25:53;;;;;;;48.10;25.63;;;6.30;99.90;;;;;;5064047;28;20203;-63
2021/11/11 07:28:22;;;;;;;48.57;25.70;;;6.30;99.90;;;;;;5052474;28;20294;-63
2021/11/11 07:30:51;;;;;;;46.00;25.83;;;6.30;99.90;;;;;;5066699;28;20188;-63
2021/11/11 07:33:19;;;;;;;47.13;26.37;;;6.40;99.90;;;;;;5071555;28;20191;-63
2021/11/11 07:35:48;;;;;;;47.43;26.87;;;6.40;99.90;;;;;;5045791;28;20199;-62
2021/11/11 07:38:19;;;;;;;47.07;24.93;;;6.40;99.90;;;;;;5067214;28;20230;-62
2021/11/11 07:40:47;;;;;;;51.30;26.70;;;6.40;99.90;;;;;;5064998;28;20247;-63
2021/11/11 07:43:18;;;;;;;51.17;26.10;;;6.40;99.90;;;;;;5065998;28;20200;-63
2021/11/11 07:45:47;;;;;;;50.23;26.03;;;6.40;99.90;;;;;;5064188;28;20200;-62
2021/11/11 07:48:16;;;;;;;49.77;26.33;;;6.50;99.90;;;;;;5068275;28;20233;-63
2021/11/11 07:50:45;;;;;;;53.03;27.20;;;6.50;99.90;;;;;;5048258;28;20193;-62
2021/11/11 07:53:13;;;;;;;52.40;26.20;;;6.50;99.90;;;;;;5063978;28;20208;-62
2021/11/11 07:55:44;;;;;;;53.57;27.73;;;6.60;99.90;;;;;;5065527;28;20199;-62
2021/11/11 07:58:13;;;;;;;54.27;26.60;;;6.60;99.90;;;;;;5061568;28;20196;-62
2021/11/11 08:00:43;;;;;;;58.13;26.23;;;6.60;99.90;;;;;;5063921;28;20306;-62
2021/11/11 08:03:12;;;;;;;54.57;26.30;;;6.70;99.90;;;;;;5061962;28;20211;-62
2021/11/11 08:05:41;;;;;;;53.50;26.33;;;6.60;99.90;;;;;;5061367;28;20215;-62
2021/11/11 08:08:11;;;;;;;47.33;24.47;;;6.70;99.90;;;;;;5063582;28;20279;-62
2021/11/11 08:10:39;;;;;;;47.70;26.00;;;6.60;99.90;;;;;;5067272;28;20211;-62
2021/11/11 08:13:08;;;;;;;50.43;26.23;;;6.80;99.90;;;;;;5029217;28;20194;-62
2021/11/11 08:15:37;;;;;;;47.97;25.90;;;6.80;99.90;;;;;;5060863;28;20235;-62
2021/11/11 08:18:08;;;;;;;50.93;26.13;;;6.70;99.90;;;;;;5063045;28;20192;-62
2021/11/11 08:20:38;;;;;;;47.73;26.20;;;6.80;99.90;;;;;;5064945;28;20212;-62
2021/11/11 08:23:07;;;;;;;52.90;25.93;;;6.80;99.90;;;;;;5062110;28;20195;-62
2021/11/11 08:25:36;;;;;;;49.07;26.37;;;6.90;99.90;;;;;;5044733;28;20184;-62
2021/11/11 08:28:05;;;;;;;48.93;26.47;;;6.80;99.90;;;;;;5059365;28;20242;-62
2021/11/11 08:30:33;;;;;;;49.57;25.53;;;6.90;99.90;;;;;;5044044;28;20196;-62
2021/11/11 08:33:02;;;;;;;54.33;26.23;;;6.90;99.90;;;;;;5064875;28;20196;-62
2021/11/11 08:35:32;;;;;;;52.20;26.43;;;6.90;99.90;;;;;;5064094;28;20196;-62
2021/11/11 08:38:01;;;;;;;49.37;26.27;;;6.90;99.90;;;;;;5063475;28;20214;-62
2021/11/11 08:40:30;;;;;;;52.00;25.67;;;7.00;99.90;;;;;;5064849;28;20298;-64
2021/11/11 08:43:01;;;;;;;55.10;27.13;;;6.90;99.90;;;;;;5052615;28;20699;-62
2021/11/11 08:45:32;;;;;;;49.37;26.73;;;7.00;99.90;;;;;;5066415;28;20241;-62
2021/11/11 08:48:02;;;;;;;52.07;25.67;;;7.00;99.90;;;;;;5064730;28;20666;-62
2021/11/11 08:50:35;;;;;;;47.63;25.70;;;7.00;99.90;;;;;;5077251;28;20204;-64
2021/11/11 08:53:05;;;;;;;50.30;25.70;;;7.00;99.90;;;;;;5063218;28;20221;-62
2021/11/11 08:55:35;;;;;;;53.53;27.07;;;7.10;99.90;;;;;;5048718;28;20198;-62
2021/11/11 08:58:05;;;;;;;49.73;25.90;;;7.20;99.90;;;;;;5060991;28;20690;-62
2021/11/11 09:00:39;;;;;;;48.67;25.50;;;7.20;99.90;;;;;;5067004;28;20262;-62
2021/11/11 09:03:09;;;;;;;46.83;25.97;;;7.20;99.90;;;;;;5063853;28;20789;-64
2021/11/11 09:05:40;;;;;;;53.30;26.60;;;7.20;99.90;;;;;;5071069;28;20215;-64
2021/11/11 09:08:11;;;;;;;45.93;26.10;;;7.20;99.90;;;;;;5067727;28;20204;-63
2021/11/11 09:10:43;;;;;;;50.87;26.23;;;7.30;99.90;;;;;;5065443;28;20271;-64
2021/11/11 09:13:27;;;;;;;48.53;24.57;;;7.40;99.90;;;;;;5073772;28;20188;-64
2021/11/11 09:15:56;;;;;;;48.07;25.03;;;7.50;99.90;;;;;;5067112;28;20571;-64
2021/11/11 09:18:24;;;;;;;45.80;24.93;;;7.60;99.90;;;;;;5048089;28;20703;-64
2021/11/11 09:21:04;;;;;;;46.90;24.83;;;7.80;99.90;;;;;;5050196;28;20771;-64
2021/11/11 09:23:32;;;;;;;41.20;23.23;;;7.90;99.90;;;;;;5048196;28;20195;-64
2021/11/11 09:26:01;;;;;;;48.53;25.00;;;7.90;99.90;;;;;;5067674;28;20273;-63
2021/11/11 09:28:30;;;;;;;44.43;25.27;;;7.80;99.90;;;;;;5069907;28;20204;-64
2021/11/11 09:30:59;;;;;;;41.63;23.87;;;7.90;99.90;;;;;;5066590;28;20685;-64
2021/11/11 09:33:28;;;;;;;45.77;24.13;;;8.00;99.90;;;;;;5058632;28;20773;-64
2021/11/11 09:35:57;;;;;;;49.47;24.73;;;8.10;99.90;;;;;;5047062;28;20817;-64
2021/11/11 09:38:27;;;;;;;48.13;24.33;;;8.20;99.90;;;;;;5061762;28;20801;-64
2021/11/11 09:40:56;;;;;;;43.77;22.97;;;8.30;99.90;;;;;;5062894;28;20294;-64
2021/11/11 09:43:35;;;;;;;40.57;23.27;;;8.30;99.90;;;;;;5065545;28;20284;-64
2021/11/11 09:46:05;;;;;;;40.93;23.33;;;8.30;99.90;;;;;;5065470;28;20261;-64
2021/11/11 09:48:35;;;;;;;42.07;23.50;;;8.40;99.90;;;;;;5064000;28;20192;-64
2021/11/11 09:51:06;;;;;;;48.00;23.03;;;8.60;99.90;;;;;;5063823;28;20678;-63
2021/11/11 09:53:43;;;;;;;42.67;22.97;;;8.70;99.90;;;;;;5049799;28;20196;-64
2021/11/11 09:59:21;;;;;;;45.73;23.47;;;8.70;99.90;;;;;;5063381;28;20249;-63
2021/11/11 10:01:50;;;;;;;45.33;23.70;;;8.60;99.90;;;;;;5066481;28;20216;-63
2021/11/11 10:04:20;;;;;;;43.83;23.57;;;8.70;99.90;;;;;;5047018;28;20199;-63
2021/11/11 10:06:48;;;;;;;45.33;23.37;;;8.70;99.90;;;;;;5065272;28;20207;-63
2021/11/11 10:09:20;;;;;;;42.10;22.93;;;8.80;99.90;;;;;;5066185;28;20549;-64
2021/11/11 10:11:50;;;;;;;41.80;22.23;;;8.80;99.90;;;;;;5058882;28;20789;-63
2021/11/11 10:14:23;;;;;;;37.70;22.10;;;8.90;99.90;;;;;;5045081;28;20231;-64
2021/11/11 10:16:54;;;;;;;40.47;22.67;;;9.00;99.90;;;;;;5065650;28;20700;-64
2021/11/11 10:19:24;;;;;;;42.63;23.10;;;9.10;99.90;;;;;;5069674;28;20282;-64
2021/11/11 10:21:55;;;;;;;41.83;23.87;;;9.10;99.90;;;;;;5065874;28;20713;-64
2021/11/11 10:24:29;;;;;;;45.77;23.03;;;9.20;99.90;;;;;;5044275;28;20196;-64
2021/11/11 10:27:02;;;;;;;42.73;24.17;;;9.20;99.90;;;;;;5062770;28;20669;-64
2021/11/11 10:29:34;;;;;;;39.97;23.10;;;9.30;99.90;;;;;;5044252;28;20219;-63
2021/11/11 10:32:10;;;;;;;43.13;23.00;;;9.30;99.90;;;;;;5064911;28;20191;-64
2021/11/11 10:34:52;;;;;;;35.33;21.87;;;9.40;99.90;;;;;;5063332;28;20207;-64
2021/11/11 10:37:23;;;;;;;36.97;20.97;;;9.50;99.90;;;;;;5049812;28;20702;-63
2021/11/11 10:39:58;;;;;;;39.93;21.53;;;9.50;99.90;;;;;;5064247;28;20686;-64
2021/11/11 10:42:30;;;;;;;44.07;21.60;;;9.70;99.90;;;;;;5067624;28;20243;-63
2021/11/11 10:45:01;;;;;;;39.57;21.00;;;9.70;99.90;;;;;;5066572;28;20200;-63
2021/11/11 10:47:32;;;;;;;45.37;21.23;;;9.60;99.90;;;;;;5041634;28;20655;-64
2021/11/11 10:50:02;;;;;;;39.37;21.57;;;9.60;99.90;;;;;;5062695;28;20934;-64
2021/11/11 10:52:37;;;;;;;40.63;21.47;;;9.60;99.90;;;;;;5068854;28;20246;-63
2021/11/11 10:55:29;;;;;;;37.23;21.00;;;9.60;99.90;;;;;;5065175;28;20815;-64
2021/11/11 10:58:04;;;;;;;40.67;22.17;;;9.70;99.90;;;;;;5044069;28;20216;-64
2021/11/11 11:00:49;;;;;;;46.37;23.47;;;9.70;99.90;;;;;;5065619;28;20218;-64
2021/11/11 11:03:20;;;;;;;42.50;21.17;;;9.70;99.90;;;;;;5062924;28;20192;-64
2021/11/11 11:05:53;;;;;;;35.00;20.63;;;9.80;99.90;;;;;;5077526;28;20867;-64
2021/11/11 11:08:25;;;;;;;35.63;20.77;;;9.80;99.90;;;;;;5063166;28;20291;-64
2021/11/11 11:10:58;;;;;;;34.47;21.10;;;9.90;99.90;;;;;;5042979;28;20238;-64
2021/11/11 11:13:29;;;;;;;37.87;21.50;;;9.90;99.90;;;;;;5061732;28;20701;-63
2021/11/11 11:16:00;;;;;;;37.90;20.53;;;10.00;99.90;;;;;;5060945;28;20301;-63
2021/11/11 11:18:32;;;;;;;37.90;21.10;;;10.00;99.90;;;;;;5060774;28;20200;-64
2021/11/11 11:21:07;;;;;;;37.77;21.77;;;10.10;99.90;;;;;;5077275;28;20216;-63
2021/11/11 11:23:38;;;;;;;38.23;21.50;;;10.10;99.90;;;;;;5062323;28;20278;-64
2021/11/11 11:26:16;;;;;;;38.97;21.60;;;10.20;99.90;;;;;;5063391;28;20659;-64
2021/11/11 11:29:06;;;;;;;40.90;21.00;;;10.20;99.90;;;;;;5063307;28;20200;-64
2021/11/11 11:31:43;;;;;;;36.10;20.90;;;10.30;99.90;;;;;;5063789;28;20660;-64
2021/11/11 11:34:16;;;;;;;34.77;21.10;;;10.40;99.90;;;;;;5061973;28;20202;-64
2021/11/11 11:36:48;;;;;;;34.40;19.37;;;10.40;99.90;;;;;;5045625;28;20250;-63
2021/11/11 11:39:26;;;;;;;34.23;19.13;;;10.50;99.90;;;;;;5066243;28;20200;-64
2021/11/11 11:41:59;;;;;;;31.27;18.70;;;10.60;99.90;;;;;;5061120;28;20208;-64
2021/11/11 11:44:43;;;;;;;33.70;18.97;;;10.70;99.90;;;;;;5063124;28;20210;-64
2021/11/11 11:47:17;;;;;;;28.50;18.17;;;10.90;99.90;;;;;;5059033;28;20201;-64
2021/11/11 11:49:53;;;;;;;34.10;19.00;;;11.20;99.90;;;;;;5063973;28;20199;-64
2021/11/11 11:52:24;;;;;;;31.83;17.17;;;11.30;99.90;;;;;;5056680;28;20199;-64
2021/11/11 11:55:04;;;;;;;34.73;17.60;;;11.30;99.90;;;;;;5060365;28;20208;-63
2021/11/11 11:57:45;;;;;;;26.50;17.30;;;11.40;99.90;;;;;;5060929;28;20215;-64
2021/11/11 12:00:30;;;;;;;27.47;16.60;;;11.40;99.90;;;;;;5047024;28;20196;-64
2021/11/11 12:03:30;;;;;;;30.63;16.97;;;11.50;99.90;;;;;;5063181;28;20312;-64
2021/11/11 12:09:12;;;;;;;29.70;17.00;;;11.70;99.90;;;;;;5034355;28;20566;-64
2021/11/11 12:14:39;;;;;;;24.30;15.53;;;12.10;99.90;;;;;;5061186;28;20205;-63
2021/11/11 12:39:51;;;;;;;24.43;16.03;;;14.50;99.90;;;;;;5042741;28;20283;-63
2021/11/11 12:42:39;;;;;;;24.63;15.77;;;14.30;99.90;;;;;;5047619;28;20208;-64
2021/11/11 12:45:15;;;;;;;20.87;14.37;;;14.10;99.90;;;;;;5061578;28;20211;-64
2021/11/11 12:47:48;;;;;;;24.03;16.20;;;13.70;99.90;;;;;;5060946;28;20196;-64
2021/11/11 12:50:39;;;;;;;23.23;14.67;;;13.40;99.90;;;;;;5060300;28;20258;-64
2021/11/11 12:53:34;;;;;;;26.83;18.10;;;13.10;99.90;;;;;;5056928;28;20225;-64
2021/11/11 12:56:18;;;;;;;26.17;16.90;;;12.80;99.90;;;;;;5059491;28;20199;-63
2021/11/11 12:58:50;;;;;;;30.87;16.60;;;12.70;99.90;;;;;;5063040;28;20287;-64
2021/11/11 13:01:21;;;;;;;24.70;14.73;;;12.60;99.90;;;;;;5059631;28;20208;-64
2021/11/11 13:03:54;;;;;;;26.13;16.50;;;12.60;99.90;;;;;;5062162;28;20226;-64
2021/11/11 13:06:38;;;;;;;27.13;17.87;;;12.50;99.90;;;;;;5059349;28;20275;-64
2021/11/11 13:09:29;;;;;;;29.67;17.07;;;12.50;99.90;;;;;;5048226;28;20662;-64
2021/11/11 13:12:13;;;;;;;25.83;15.63;;;12.50;99.90;;;;;;5061546;28;20202;-64
2021/11/11 13:15:07;;;;;;;26.30;15.43;;;12.50;99.90;;;;;;5036323;28;20224;-63
2021/11/11 13:17:44;;;;;;;26.23;16.00;;;12.50;99.90;;;;;;5035292;28;20318;-64
2021/11/11 13:20:22;;;;;;;32.00;22.20;;;12.60;99.90;;;;;;5060600;28;20196;-64
2021/11/11 13:22:58;;;;;;;24.43;15.77;;;12.50;99.90;;;;;;5064760;28;20229;-64
2021/11/11 13:25:50;;;;;;;34.17;21.67;;;12.50;99.90;;;;;;5058382;28;20678;-64
2021/11/11 13:54:53;;;;;;;21.03;12.87;;;12.30;99.90;;;;;;5055375;28;20606;-64
2021/11/11 16:02:27;;;;;;;34.90;18.57;;;10.60;99.90;;;;;;5065482;28;20253;-64
2021/11/11 16:24:35;;;;;;;34.03;20.10;;;10.40;99.90;;;;;;5008403;28;20293;-64
2021/11/11 16:27:07;;;;;;;34.57;21.57;;;10.30;99.90;;;;;;5065298;28;20196;-64
2021/11/11 16:29:36;;;;;;;36.63;19.90;;;10.40;99.90;;;;;;5065530;28;20282;-64